sensor_id;sensor_type;location;lat;lon;timestamp;pressure;altitude;pressure_sealevel;temperature;humidity
66176;BME280;52977;44.816;20.538;2023-08-08T00:00:21;99873.53;;;17.47;79.72
66176;BME280;52977;44.816;20.538;2023-08-08T00:02:47;99874.25;;;17.44;78.14
66176;BME280;52977;44.816;20.538;2023-08-08T00:05:13;99885.84;;;17.53;78.66
66176;BME280;52977;44.816;20.538;2023-08-08T00:07:39;99889.13;;;17.59;77.62
66176;BME280;52977;44.816;20.538;2023-08-08T00:10:06;99883.19;;;17.57;77.23
66176;BME280;52977;44.816;20.538;2023-08-08T00:12:32;99843.91;;;17.24;77.83
66176;BME280;52977;44.816;20.538;2023-08-08T00:14:58;99888.75;;;17.60;78.03
66176;BME280;52977;44.816;20.538;2023-08-08T00:17:24;99877.16;;;17.51;78.47
66176;BME280;52977;44.816;20.538;2023-08-08T00:19:50;99886.00;;;17.60;77.69
66176;BME280;52977;44.816;20.538;2023-08-08T00:22:16;99871.66;;;17.51;78.22
66176;BME280;52977;44.816;20.538;2023-08-08T00:24:42;99832.69;;;17.14;77.90
66176;BME280;52977;44.816;20.538;2023-08-08T00:27:09;99881.81;;;17.47;78.05
66176;BME280;52977;44.816;20.538;2023-08-08T00:29:35;99882.72;;;17.55;77.50
66176;BME280;52977;44.816;20.538;2023-08-08T00:32:01;99885.84;;;17.53;78.35
66176;BME280;52977;44.816;20.538;2023-08-08T00:34:27;99824.53;;;17.21;77.88
66176;BME280;52977;44.816;20.538;2023-08-08T00:36:53;99883.09;;;17.53;77.92
66176;BME280;52977;44.816;20.538;2023-08-08T00:39:20;99897.84;;;17.61;77.50
66176;BME280;52977;44.816;20.538;2023-08-08T00:41:46;99839.34;;;17.32;77.45
66176;BME280;52977;44.816;20.538;2023-08-08T00:44:13;99880.84;;;17.59;77.40
66176;BME280;52977;44.816;20.538;2023-08-08T00:46:40;99890.47;;;17.69;76.49
66176;BME280;52977;44.816;20.538;2023-08-08T00:49:06;99873.34;;;17.59;75.86
66176;BME280;52977;44.816;20.538;2023-08-08T00:51:32;99889.31;;;17.70;75.66
66176;BME280;52977;44.816;20.538;2023-08-08T00:53:58;99894.25;;;17.80;73.82
66176;BME280;52977;44.816;20.538;2023-08-08T00:56:25;99887.72;;;17.69;73.89
66176;BME280;52977;44.816;20.538;2023-08-08T00:58:53;99883.22;;;17.60;74.80
66176;BME280;52977;44.816;20.538;2023-08-08T01:01:20;99891.97;;;17.63;75.32
66176;BME280;52977;44.816;20.538;2023-08-08T01:03:47;99897.03;;;17.60;75.99
66176;BME280;52977;44.816;20.538;2023-08-08T01:06:29;99899.88;;;17.64;75.38
66176;BME280;52977;44.816;20.538;2023-08-08T01:09:18;99895.75;;;17.54;75.64
66176;BME280;52977;44.816;20.538;2023-08-08T01:11:47;99863.19;;;17.44;75.41
66176;BME280;52977;44.816;20.538;2023-08-08T01:14:16;99897.63;;;17.50;75.93
66176;BME280;52977;44.816;20.538;2023-08-08T01:16:45;99893.53;;;17.64;75.00
66176;BME280;52977;44.816;20.538;2023-08-08T01:19:18;99887.22;;;17.63;74.77
66176;BME280;52977;44.816;20.538;2023-08-08T01:21:52;99876.22;;;17.43;75.43
66176;BME280;52977;44.816;20.538;2023-08-08T01:24:23;99889.56;;;17.61;75.37
66176;BME280;52977;44.816;20.538;2023-08-08T01:26:53;99863.56;;;17.42;75.01
66176;BME280;52977;44.816;20.538;2023-08-08T01:29:19;99867.28;;;17.50;75.11
66176;BME280;52977;44.816;20.538;2023-08-08T01:31:45;99887.88;;;17.56;74.81
66176;BME280;52977;44.816;20.538;2023-08-08T01:34:11;99820.97;;;17.20;73.82
66176;BME280;52977;44.816;20.538;2023-08-08T01:36:56;99896.38;;;17.67;74.25
66176;BME280;52977;44.816;20.538;2023-08-08T01:39:26;99817.34;;;17.16;74.33
66176;BME280;52977;44.816;20.538;2023-08-08T01:41:56;99871.06;;;17.42;74.97
66176;BME280;52977;44.816;20.538;2023-08-08T01:44:24;99847.63;;;17.32;74.74
66176;BME280;52977;44.816;20.538;2023-08-08T01:46:52;99856.53;;;17.45;74.99
66176;BME280;52977;44.816;20.538;2023-08-08T01:49:19;99890.28;;;17.58;75.40
66176;BME280;52977;44.816;20.538;2023-08-08T01:51:45;99846.28;;;17.26;74.74
66176;BME280;52977;44.816;20.538;2023-08-08T01:54:10;99850.16;;;17.21;75.49
66176;BME280;52977;44.816;20.538;2023-08-08T01:56:37;99893.28;;;17.49;76.21
66176;BME280;52977;44.816;20.538;2023-08-08T01:59:02;99883.69;;;17.43;76.34
66176;BME280;52977;44.816;20.538;2023-08-08T02:01:28;99903.88;;;17.47;76.22
66176;BME280;52977;44.816;20.538;2023-08-08T02:03:53;99906.34;;;17.52;76.32
66176;BME280;52977;44.816;20.538;2023-08-08T02:06:19;99894.28;;;17.41;76.37
66176;BME280;52977;44.816;20.538;2023-08-08T02:08:45;99881.97;;;17.35;76.73
66176;BME280;52977;44.816;20.538;2023-08-08T02:11:11;99897.88;;;17.41;77.29
66176;BME280;52977;44.816;20.538;2023-08-08T02:13:37;99894.16;;;17.34;77.79
66176;BME280;52977;44.816;20.538;2023-08-08T02:16:03;99904.97;;;17.42;77.21
66176;BME280;52977;44.816;20.538;2023-08-08T02:18:29;99876.34;;;17.31;76.78
66176;BME280;52977;44.816;20.538;2023-08-08T02:20:55;99904.25;;;17.46;76.67
66176;BME280;52977;44.816;20.538;2023-08-08T02:23:22;99901.31;;;17.38;77.26
66176;BME280;52977;44.816;20.538;2023-08-08T02:25:48;99900.16;;;17.39;76.67
66176;BME280;52977;44.816;20.538;2023-08-08T02:28:13;99904.91;;;17.39;76.74
66176;BME280;52977;44.816;20.538;2023-08-08T02:30:39;99895.81;;;17.38;77.14
66176;BME280;52977;44.816;20.538;2023-08-08T02:33:05;99870.09;;;17.15;77.19
66176;BME280;52977;44.816;20.538;2023-08-08T02:35:30;99872.06;;;17.14;77.23
66176;BME280;52977;44.816;20.538;2023-08-08T02:37:56;99917.81;;;17.15;78.63
66176;BME280;52977;44.816;20.538;2023-08-08T02:40:22;99752.78;;;16.23;78.27
66176;BME280;52977;44.816;20.538;2023-08-08T02:42:50;99829.88;;;16.74;78.70
66176;BME280;52977;44.816;20.538;2023-08-08T02:45:15;99912.34;;;17.19;79.46
66176;BME280;52977;44.816;20.538;2023-08-08T02:47:41;99861.97;;;16.67;79.66
66176;BME280;52977;44.816;20.538;2023-08-08T02:50:07;99916.28;;;17.18;80.21
66176;BME280;52977;44.816;20.538;2023-08-08T02:52:33;99918.69;;;17.19;80.32
66176;BME280;52977;44.816;20.538;2023-08-08T02:54:58;99918.59;;;17.16;80.46
66176;BME280;52977;44.816;20.538;2023-08-08T02:57:24;99908.56;;;17.07;80.07
66176;BME280;52977;44.816;20.538;2023-08-08T02:59:51;99917.09;;;17.18;79.74
66176;BME280;52977;44.816;20.538;2023-08-08T03:02:17;99884.69;;;16.96;79.91
66176;BME280;52977;44.816;20.538;2023-08-08T03:04:44;99929.13;;;17.10;80.04
66176;BME280;52977;44.816;20.538;2023-08-08T03:07:11;99880.63;;;16.89;79.60
66176;BME280;52977;44.816;20.538;2023-08-08T03:09:37;99876.16;;;16.85;78.85
66176;BME280;52977;44.816;20.538;2023-08-08T03:12:03;99902.28;;;17.07;78.70
66176;BME280;52977;44.816;20.538;2023-08-08T03:14:31;99897.53;;;17.07;78.75
66176;BME280;52977;44.816;20.538;2023-08-08T03:16:58;99857.59;;;16.82;78.42
66176;BME280;52977;44.816;20.538;2023-08-08T03:19:25;99932.91;;;17.21;78.91
66176;BME280;52977;44.816;20.538;2023-08-08T03:21:51;99923.25;;;17.12;79.54
66176;BME280;52977;44.816;20.538;2023-08-08T03:24:17;99921.13;;;17.24;78.43
66176;BME280;52977;44.816;20.538;2023-08-08T03:26:42;99934.25;;;17.28;78.65
66176;BME280;52977;44.816;20.538;2023-08-08T03:29:08;99855.00;;;16.73;78.26
66176;BME280;52977;44.816;20.538;2023-08-08T03:31:39;99930.06;;;16.98;79.33
66176;BME280;52977;44.816;20.538;2023-08-08T03:34:05;99925.34;;;16.99;79.30
66176;BME280;52977;44.816;20.538;2023-08-08T03:36:32;99952.78;;;17.11;79.87
66176;BME280;52977;44.816;20.538;2023-08-08T03:38:58;99951.19;;;17.10;80.29
66176;BME280;52977;44.816;20.538;2023-08-08T03:41:24;99954.72;;;17.11;80.61
66176;BME280;52977;44.816;20.538;2023-08-08T03:43:49;99926.22;;;16.87;80.25
66176;BME280;52977;44.816;20.538;2023-08-08T03:46:17;99942.25;;;16.97;80.50
66176;BME280;52977;44.816;20.538;2023-08-08T03:48:42;99969.03;;;17.16;81.12
66176;BME280;52977;44.816;20.538;2023-08-08T03:51:08;99958.69;;;17.29;79.21
66176;BME280;52977;44.816;20.538;2023-08-08T03:53:33;99945.97;;;17.24;79.19
66176;BME280;52977;44.816;20.538;2023-08-08T03:55:59;99946.41;;;17.27;79.45
66176;BME280;52977;44.816;20.538;2023-08-08T03:58:25;99930.41;;;16.97;79.30
66176;BME280;52977;44.816;20.538;2023-08-08T04:00:51;99960.50;;;17.21;79.04
66176;BME280;52977;44.816;20.538;2023-08-08T04:03:16;99971.00;;;17.16;79.29
66176;BME280;52977;44.816;20.538;2023-08-08T04:05:46;99916.00;;;16.71;80.39
66176;BME280;52977;44.816;20.538;2023-08-08T04:08:14;99918.97;;;16.79;80.11
66176;BME280;52977;44.816;20.538;2023-08-08T04:10:40;99915.66;;;16.89;79.10
66176;BME280;52977;44.816;20.538;2023-08-08T04:13:07;99929.41;;;17.05;80.03
66176;BME280;52977;44.816;20.538;2023-08-08T04:15:33;99928.19;;;16.86;80.01
66176;BME280;52977;44.816;20.538;2023-08-08T04:17:59;99952.75;;;16.91;80.44
66176;BME280;52977;44.816;20.538;2023-08-08T04:20:24;99967.84;;;16.98;81.14
66176;BME280;52977;44.816;20.538;2023-08-08T04:22:50;99969.53;;;17.02;80.52
66176;BME280;52977;44.816;20.538;2023-08-08T04:25:16;99966.91;;;16.90;79.63
66176;BME280;52977;44.816;20.538;2023-08-08T04:27:41;99972.91;;;16.80;80.81
66176;BME280;52977;44.816;20.538;2023-08-08T04:30:07;99979.50;;;16.75;81.81
66176;BME280;52977;44.816;20.538;2023-08-08T04:32:33;99988.94;;;16.74;81.39
66176;BME280;52977;44.816;20.538;2023-08-08T04:34:58;99969.03;;;16.65;81.38
66176;BME280;52977;44.816;20.538;2023-08-08T04:37:24;99974.63;;;16.68;82.28
66176;BME280;52977;44.816;20.538;2023-08-08T04:39:49;99991.69;;;16.74;82.45
66176;BME280;52977;44.816;20.538;2023-08-08T04:42:15;99974.88;;;16.63;82.19
66176;BME280;52977;44.816;20.538;2023-08-08T04:44:41;99948.06;;;16.44;81.70
66176;BME280;52977;44.816;20.538;2023-08-08T04:47:08;100006.09;;;16.67;81.22
66176;BME280;52977;44.816;20.538;2023-08-08T04:49:34;99895.44;;;16.01;82.12
66176;BME280;52977;44.816;20.538;2023-08-08T04:52:00;100010.19;;;16.73;82.75
66176;BME280;52977;44.816;20.538;2023-08-08T04:54:26;100002.28;;;16.72;83.26
66176;BME280;52977;44.816;20.538;2023-08-08T04:56:52;100009.94;;;16.79;83.06
66176;BME280;52977;44.816;20.538;2023-08-08T04:59:18;100017.31;;;16.90;81.02
66176;BME280;52977;44.816;20.538;2023-08-08T05:01:43;100010.25;;;16.77;81.00
66176;BME280;52977;44.816;20.538;2023-08-08T05:04:09;100011.34;;;16.72;79.12
66176;BME280;52977;44.816;20.538;2023-08-08T05:06:35;100022.47;;;16.76;80.83
66176;BME280;52977;44.816;20.538;2023-08-08T05:09:01;100023.88;;;16.70;81.42
66176;BME280;52977;44.816;20.538;2023-08-08T05:11:26;100032.84;;;16.83;81.38
66176;BME280;52977;44.816;20.538;2023-08-08T05:13:52;99999.34;;;16.65;80.28
66176;BME280;52977;44.816;20.538;2023-08-08T05:16:18;100020.06;;;16.74;80.19
66176;BME280;52977;44.816;20.538;2023-08-08T05:18:44;100042.34;;;16.85;80.19
66176;BME280;52977;44.816;20.538;2023-08-08T05:21:10;100009.56;;;16.64;79.86
66176;BME280;52977;44.816;20.538;2023-08-08T05:23:36;100030.19;;;16.70;79.51
66176;BME280;52977;44.816;20.538;2023-08-08T05:26:02;100049.47;;;16.86;80.96
66176;BME280;52977;44.816;20.538;2023-08-08T05:28:28;100009.75;;;16.55;80.56
66176;BME280;52977;44.816;20.538;2023-08-08T05:30:54;100039.34;;;16.74;80.97
66176;BME280;52977;44.816;20.538;2023-08-08T05:33:19;99994.06;;;16.44;81.13
66176;BME280;52977;44.816;20.538;2023-08-08T05:35:45;100062.22;;;16.91;82.50
66176;BME280;52977;44.816;20.538;2023-08-08T05:38:11;100056.81;;;16.95;83.78
66176;BME280;52977;44.816;20.538;2023-08-08T05:40:36;100065.88;;;17.11;81.18
66176;BME280;52977;44.816;20.538;2023-08-08T05:43:03;100077.53;;;17.04;80.30
66176;BME280;52977;44.816;20.538;2023-08-08T05:45:29;100070.22;;;16.96;80.45
66176;BME280;52977;44.816;20.538;2023-08-08T05:47:54;100074.34;;;17.02;81.07
66176;BME280;52977;44.816;20.538;2023-08-08T05:50:21;100084.03;;;17.12;79.93
66176;BME280;52977;44.816;20.538;2023-08-08T05:52:47;100081.69;;;17.14;79.76
66176;BME280;52977;44.816;20.538;2023-08-08T05:55:12;100066.91;;;17.06;79.64
66176;BME280;52977;44.816;20.538;2023-08-08T05:57:38;100076.72;;;17.04;79.06
66176;BME280;52977;44.816;20.538;2023-08-08T06:00:04;100078.59;;;17.00;78.62
66176;BME280;52977;44.816;20.538;2023-08-08T06:02:38;100080.63;;;17.03;79.64
66176;BME280;52977;44.816;20.538;2023-08-08T06:05:04;100088.66;;;17.08;79.52
66176;BME280;52977;44.816;20.538;2023-08-08T06:07:30;100086.94;;;17.03;78.81
66176;BME280;52977;44.816;20.538;2023-08-08T06:09:56;100085.25;;;16.99;78.86
66176;BME280;52977;44.816;20.538;2023-08-08T06:12:22;100086.78;;;16.96;77.60
66176;BME280;52977;44.816;20.538;2023-08-08T06:14:48;100072.69;;;16.85;76.93
66176;BME280;52977;44.816;20.538;2023-08-08T06:17:14;100109.19;;;16.95;76.96
66176;BME280;52977;44.816;20.538;2023-08-08T06:19:40;100096.13;;;16.91;77.96
66176;BME280;52977;44.816;20.538;2023-08-08T06:22:06;100084.16;;;16.87;78.43
66176;BME280;52977;44.816;20.538;2023-08-08T06:24:33;100100.31;;;17.01;78.49
66176;BME280;52977;44.816;20.538;2023-08-08T06:26:58;100097.81;;;16.96;78.71
66176;BME280;52977;44.816;20.538;2023-08-08T06:29:24;100063.25;;;16.86;78.28
66176;BME280;52977;44.816;20.538;2023-08-08T06:31:50;100107.66;;;17.13;77.45
66176;BME280;52977;44.816;20.538;2023-08-08T06:34:17;100104.28;;;17.20;78.92
66176;BME280;52977;44.816;20.538;2023-08-08T06:36:43;100106.44;;;17.27;78.19
66176;BME280;52977;44.816;20.538;2023-08-08T06:39:09;100109.81;;;17.20;77.54
66176;BME280;52977;44.816;20.538;2023-08-08T06:41:37;100084.38;;;16.95;77.87
66176;BME280;52977;44.816;20.538;2023-08-08T06:44:04;100106.09;;;17.12;78.20
66176;BME280;52977;44.816;20.538;2023-08-08T06:46:30;100102.25;;;17.17;77.73
66176;BME280;52977;44.816;20.538;2023-08-08T06:48:56;100049.84;;;16.85;78.27
66176;BME280;52977;44.816;20.538;2023-08-08T06:51:24;100108.03;;;17.28;78.49
66176;BME280;52977;44.816;20.538;2023-08-08T06:53:51;100106.59;;;17.34;79.50
66176;BME280;52977;44.816;20.538;2023-08-08T06:56:18;100125.81;;;17.46;79.48
66176;BME280;52977;44.816;20.538;2023-08-08T06:58:44;100104.16;;;17.48;78.79
66176;BME280;52977;44.816;20.538;2023-08-08T07:01:10;100024.16;;;16.97;78.82
66176;BME280;52977;44.816;20.538;2023-08-08T07:03:36;100116.59;;;17.58;78.57
66176;BME280;52977;44.816;20.538;2023-08-08T07:06:03;100081.66;;;17.46;77.85
66176;BME280;52977;44.816;20.538;2023-08-08T07:08:29;100105.75;;;17.65;76.41
66176;BME280;52977;44.816;20.538;2023-08-08T07:10:58;100107.94;;;17.59;76.32
66176;BME280;52977;44.816;20.538;2023-08-08T07:13:24;100103.47;;;17.51;75.63
66176;BME280;52977;44.816;20.538;2023-08-08T07:15:50;100120.09;;;17.55;74.55
66176;BME280;52977;44.816;20.538;2023-08-08T07:18:17;100106.75;;;17.57;75.33
66176;BME280;52977;44.816;20.538;2023-08-08T07:20:43;100111.81;;;17.55;76.36
66176;BME280;52977;44.816;20.538;2023-08-08T07:23:09;100116.38;;;17.47;74.00
66176;BME280;52977;44.816;20.538;2023-08-08T07:25:35;100120.91;;;17.39;75.11
66176;BME280;52977;44.816;20.538;2023-08-08T07:28:02;100118.34;;;17.31;75.42
66176;BME280;52977;44.816;20.538;2023-08-08T07:30:28;100120.56;;;17.41;76.82
66176;BME280;52977;44.816;20.538;2023-08-08T07:32:54;100094.03;;;17.36;76.09
66176;BME280;52977;44.816;20.538;2023-08-08T07:35:20;100116.53;;;17.38;74.70
66176;BME280;52977;44.816;20.538;2023-08-08T07:37:46;100138.00;;;17.45;74.98
66176;BME280;52977;44.816;20.538;2023-08-08T07:40:18;100119.75;;;17.40;75.47
66176;BME280;52977;44.816;20.538;2023-08-08T07:42:45;100142.25;;;17.58;75.40
66176;BME280;52977;44.816;20.538;2023-08-08T07:45:11;100140.91;;;17.68;75.16
66176;BME280;52977;44.816;20.538;2023-08-08T07:47:38;100113.63;;;17.47;74.45
66176;BME280;52977;44.816;20.538;2023-08-08T07:50:05;100148.72;;;17.66;73.41
66176;BME280;52977;44.816;20.538;2023-08-08T07:52:35;100144.38;;;17.65;74.19
66176;BME280;52977;44.816;20.538;2023-08-08T07:55:01;100138.78;;;17.62;74.27
66176;BME280;52977;44.816;20.538;2023-08-08T07:57:27;100002.63;;;16.86;74.60
66176;BME280;52977;44.816;20.538;2023-08-08T07:59:53;100130.53;;;17.81;75.00
66176;BME280;52977;44.816;20.538;2023-08-08T08:02:19;100135.84;;;17.90;74.87
66176;BME280;52977;44.816;20.538;2023-08-08T08:04:46;100128.09;;;17.96;74.50
66176;BME280;52977;44.816;20.538;2023-08-08T08:07:12;100030.78;;;17.28;74.09
66176;BME280;52977;44.816;20.538;2023-08-08T08:09:39;100119.22;;;17.86;75.29
66176;BME280;52977;44.816;20.538;2023-08-08T08:12:08;100131.00;;;18.03;75.28
66176;BME280;52977;44.816;20.538;2023-08-08T08:14:36;100115.91;;;17.97;74.06
66176;BME280;52977;44.816;20.538;2023-08-08T08:17:02;100128.19;;;17.99;74.56
66176;BME280;52977;44.816;20.538;2023-08-08T08:19:29;100134.50;;;18.00;74.38
66176;BME280;52977;44.816;20.538;2023-08-08T08:21:55;100094.75;;;17.69;74.04
66176;BME280;52977;44.816;20.538;2023-08-08T08:24:21;100132.38;;;17.93;74.02
66176;BME280;52977;44.816;20.538;2023-08-08T08:26:47;100102.03;;;17.77;74.63
66176;BME280;52977;44.816;20.538;2023-08-08T08:29:13;100086.94;;;17.71;74.65
66176;BME280;52977;44.816;20.538;2023-08-08T08:31:39;100126.66;;;18.02;73.54
66176;BME280;52977;44.816;20.538;2023-08-08T08:34:05;100107.72;;;17.84;73.41
66176;BME280;52977;44.816;20.538;2023-08-08T08:36:32;100107.81;;;17.88;72.94
66176;BME280;52977;44.816;20.538;2023-08-08T08:38:58;100116.44;;;17.86;73.63
66176;BME280;52977;44.816;20.538;2023-08-08T08:41:26;100123.81;;;17.98;73.72
66176;BME280;52977;44.816;20.538;2023-08-08T08:43:54;100125.94;;;18.05;73.71
66176;BME280;52977;44.816;20.538;2023-08-08T08:46:21;100120.19;;;18.14;74.70
66176;BME280;52977;44.816;20.538;2023-08-08T08:48:51;100107.91;;;18.11;74.72
66176;BME280;52977;44.816;20.538;2023-08-08T08:51:18;100128.28;;;18.22;73.56
66176;BME280;52977;44.816;20.538;2023-08-08T08:53:44;100134.22;;;18.24;74.86
66176;BME280;52977;44.816;20.538;2023-08-08T08:56:15;100120.63;;;18.35;73.16
66176;BME280;52977;44.816;20.538;2023-08-08T08:58:42;100118.38;;;18.41;73.70
66176;BME280;52977;44.816;20.538;2023-08-08T09:01:09;100069.69;;;18.13;73.42
66176;BME280;52977;44.816;20.538;2023-08-08T09:03:36;100096.69;;;18.23;72.82
66176;BME280;52977;44.816;20.538;2023-08-08T09:06:04;100107.09;;;18.30;72.29
66176;BME280;52977;44.816;20.538;2023-08-08T09:08:30;100106.44;;;18.37;73.32
66176;BME280;52977;44.816;20.538;2023-08-08T09:10:56;100108.19;;;18.45;73.01
66176;BME280;52977;44.816;20.538;2023-08-08T09:13:22;100102.34;;;18.50;72.33
66176;BME280;52977;44.816;20.538;2023-08-08T09:15:52;100100.94;;;18.60;71.59
66176;BME280;52977;44.816;20.538;2023-08-08T09:18:18;100111.72;;;18.65;70.81
66176;BME280;52977;44.816;20.538;2023-08-08T09:20:48;100102.31;;;18.70;70.75
66176;BME280;52977;44.816;20.538;2023-08-08T09:23:15;100105.59;;;18.75;70.14
66176;BME280;52977;44.816;20.538;2023-08-08T09:25:41;100109.06;;;18.72;69.49
66176;BME280;52977;44.816;20.538;2023-08-08T09:28:07;100075.22;;;18.56;68.83
66176;BME280;52977;44.816;20.538;2023-08-08T09:30:34;99998.72;;;18.17;67.72
66176;BME280;52977;44.816;20.538;2023-08-08T09:33:01;100058.81;;;18.67;67.38
66176;BME280;52977;44.816;20.538;2023-08-08T09:35:30;100080.25;;;18.73;68.52
66176;BME280;52977;44.816;20.538;2023-08-08T09:37:56;100073.19;;;18.76;69.09
66176;BME280;52977;44.816;20.538;2023-08-08T09:40:23;100089.63;;;18.88;68.57
66176;BME280;52977;44.816;20.538;2023-08-08T09:42:51;100096.31;;;18.87;67.34
66176;BME280;52977;44.816;20.538;2023-08-08T09:45:19;100095.44;;;18.83;67.50
66176;BME280;52977;44.816;20.538;2023-08-08T09:47:46;100078.66;;;18.72;68.89
66176;BME280;52977;44.816;20.538;2023-08-08T09:50:11;100104.31;;;18.92;68.34
66176;BME280;52977;44.816;20.538;2023-08-08T09:52:39;100064.34;;;18.67;67.22
66176;BME280;52977;44.816;20.538;2023-08-08T09:55:05;100105.56;;;18.95;67.54
66176;BME280;52977;44.816;20.538;2023-08-08T09:57:32;100089.50;;;19.04;65.63
66176;BME280;52977;44.816;20.538;2023-08-08T09:59:58;100084.94;;;19.16;67.92
66176;BME280;52977;44.816;20.538;2023-08-08T10:02:25;100083.50;;;19.25;67.50
66176;BME280;52977;44.816;20.538;2023-08-08T10:04:52;100085.84;;;19.23;64.99
66176;BME280;52977;44.816;20.538;2023-08-08T10:07:18;100083.59;;;19.06;65.87
66176;BME280;52977;44.816;20.538;2023-08-08T10:09:44;100038.91;;;18.81;64.97
66176;BME280;52977;44.816;20.538;2023-08-08T10:12:12;99916.75;;;18.02;64.84
66176;BME280;52977;44.816;20.538;2023-08-08T10:14:42;100080.81;;;19.06;65.88
66176;BME280;52977;44.816;20.538;2023-08-08T10:17:13;100076.63;;;19.16;67.33
66176;BME280;52977;44.816;20.538;2023-08-08T10:19:39;100079.53;;;19.23;68.08
66176;BME280;52977;44.816;20.538;2023-08-08T10:22:05;100059.03;;;19.27;67.09
66176;BME280;52977;44.816;20.538;2023-08-08T10:24:37;100075.09;;;19.45;66.90
66176;BME280;52977;44.816;20.538;2023-08-08T10:27:04;100067.69;;;19.53;65.64
66176;BME280;52977;44.816;20.538;2023-08-08T10:29:32;100068.59;;;19.34;64.53
66176;BME280;52977;44.816;20.538;2023-08-08T10:32:01;99972.41;;;18.73;63.61
66176;BME280;52977;44.816;20.538;2023-08-08T10:34:41;100062.69;;;19.08;65.28
66176;BME280;52977;44.816;20.538;2023-08-08T10:37:15;100075.63;;;19.27;66.24
66176;BME280;52977;44.816;20.538;2023-08-08T10:39:53;100073.38;;;19.37;66.71
66176;BME280;52977;44.816;20.538;2023-08-08T10:42:20;100077.97;;;19.52;68.24
66176;BME280;52977;44.816;20.538;2023-08-08T10:44:52;100079.25;;;19.58;67.26
66176;BME280;52977;44.816;20.538;2023-08-08T10:47:26;100078.25;;;19.74;65.33
66176;BME280;52977;44.816;20.538;2023-08-08T10:50:03;100069.09;;;19.70;65.76
66176;BME280;52977;44.816;20.538;2023-08-08T10:52:30;100082.53;;;19.68;65.14
66176;BME280;52977;44.816;20.538;2023-08-08T10:54:56;100074.69;;;19.73;66.96
66176;BME280;52977;44.816;20.538;2023-08-08T10:57:26;100075.53;;;19.77;66.35
66176;BME280;52977;44.816;20.538;2023-08-08T10:59:53;100013.22;;;19.30;65.44
66176;BME280;52977;44.816;20.538;2023-08-08T11:02:20;100080.63;;;19.72;65.15
66176;BME280;52977;44.816;20.538;2023-08-08T11:04:48;100026.66;;;19.32;63.53
66176;BME280;52977;44.816;20.538;2023-08-08T11:07:16;99934.09;;;18.72;65.85
66176;BME280;52977;44.816;20.538;2023-08-08T11:09:43;100081.03;;;19.74;65.28
66176;BME280;52977;44.816;20.538;2023-08-08T11:12:16;100072.97;;;19.92;66.14
66176;BME280;52977;44.816;20.538;2023-08-08T11:14:42;100035.13;;;19.73;64.28
66176;BME280;52977;44.816;20.538;2023-08-08T11:17:10;100081.81;;;20.01;64.56
66176;BME280;52977;44.816;20.538;2023-08-08T11:19:40;100062.88;;;20.07;64.80
66176;BME280;52977;44.816;20.538;2023-08-08T11:22:10;100073.28;;;20.17;61.19
66176;BME280;52977;44.816;20.538;2023-08-08T11:24:37;100073.56;;;20.08;63.83
66176;BME280;52977;44.816;20.538;2023-08-08T11:27:03;100069.34;;;20.18;62.33
66176;BME280;52977;44.816;20.538;2023-08-08T11:29:30;100068.63;;;20.25;61.98
66176;BME280;52977;44.816;20.538;2023-08-08T11:31:59;100064.00;;;20.36;61.70
66176;BME280;52977;44.816;20.538;2023-08-08T11:34:25;100062.97;;;20.52;63.03
66176;BME280;52977;44.816;20.538;2023-08-08T11:36:52;100055.69;;;20.40;61.37
66176;BME280;52977;44.816;20.538;2023-08-08T11:39:18;100040.28;;;20.05;63.54
66176;BME280;52977;44.816;20.538;2023-08-08T11:41:44;100050.97;;;20.06;63.03
66176;BME280;52977;44.816;20.538;2023-08-08T11:44:11;99951.78;;;19.51;63.02
66176;BME280;52977;44.816;20.538;2023-08-08T11:46:45;100045.31;;;20.29;62.24
66176;BME280;52977;44.816;20.538;2023-08-08T11:49:16;100041.38;;;20.34;63.01
66176;BME280;52977;44.816;20.538;2023-08-08T11:51:44;100053.75;;;20.44;60.42
66176;BME280;52977;44.816;20.538;2023-08-08T11:54:11;100038.34;;;20.46;60.23
66176;BME280;52977;44.816;20.538;2023-08-08T11:56:37;100043.56;;;20.55;61.22
66176;BME280;52977;44.816;20.538;2023-08-08T11:59:04;100042.59;;;20.37;61.11
66176;BME280;52977;44.816;20.538;2023-08-08T12:01:33;100058.25;;;20.18;62.47
66176;BME280;52977;44.816;20.538;2023-08-08T12:04:05;100045.31;;;20.33;62.29
66176;BME280;52977;44.816;20.538;2023-08-08T12:06:31;100046.66;;;20.46;60.95
66176;BME280;52977;44.816;20.538;2023-08-08T12:08:57;100039.81;;;20.37;60.33
66176;BME280;52977;44.816;20.538;2023-08-08T12:11:23;99983.69;;;20.06;61.54
66176;BME280;52977;44.816;20.538;2023-08-08T12:13:49;100034.63;;;20.31;61.82
66176;BME280;52977;44.816;20.538;2023-08-08T12:16:16;100037.69;;;20.23;62.28
66176;BME280;52977;44.816;20.538;2023-08-08T12:18:43;100034.63;;;20.31;61.41
66176;BME280;52977;44.816;20.538;2023-08-08T12:21:09;100009.22;;;20.26;61.26
66176;BME280;52977;44.816;20.538;2023-08-08T12:23:36;100021.75;;;20.54;60.59
66176;BME280;52977;44.816;20.538;2023-08-08T12:26:04;100023.59;;;20.80;60.62
66176;BME280;52977;44.816;20.538;2023-08-08T12:28:31;100007.00;;;20.87;58.58
66176;BME280;52977;44.816;20.538;2023-08-08T12:30:58;100021.06;;;21.12;58.23
66176;BME280;52977;44.816;20.538;2023-08-08T12:33:24;100013.59;;;21.20;56.72
66176;BME280;52977;44.816;20.538;2023-08-08T12:35:50;100016.09;;;21.40;58.91
66176;BME280;52977;44.816;20.538;2023-08-08T12:38:17;99928.63;;;20.97;56.28
66176;BME280;52977;44.816;20.538;2023-08-08T12:40:43;99993.50;;;21.45;54.97